createdAt,value
2022-12-23T00:01:26.852Z,87.52
2022-12-23T00:04:01.651Z,87.92
2022-12-23T00:06:32.377Z,88.44
2022-12-23T00:09:03.803Z,88.19
2022-12-23T00:11:36.059Z,87.66
2022-12-23T00:14:23.520Z,87.80
2022-12-23T00:16:54.204Z,88.20
2022-12-23T00:19:24.790Z,87.27
2022-12-23T00:21:55.354Z,87.99
2022-12-23T00:24:26.038Z,87.14
2022-12-23T00:26:58.452Z,86.14
2022-12-23T00:29:29.072Z,86.17
2022-12-23T00:31:59.710Z,85.90
2022-12-23T00:38:39.138Z,85.35
2022-12-23T00:41:30.466Z,86.11
2022-12-23T00:44:04.874Z,85.93
2022-12-23T00:46:37.340Z,86.64
2022-12-23T00:49:38.661Z,87.05
2022-12-23T00:52:14.249Z,86.30
2022-12-23T00:54:47.421Z,86.27
2022-12-23T00:57:19.896Z,86.38
2022-12-23T00:59:54.093Z,86.72
2022-12-23T01:02:43.877Z,87.17
2022-12-23T01:05:39.089Z,86.01
2022-12-23T01:08:13.584Z,85.58
2022-12-23T01:10:46.429Z,85.22
2022-12-23T01:13:18.927Z,85.35
2022-12-23T01:15:55.432Z,85.90
2022-12-23T01:18:29.948Z,85.42
2022-12-23T01:21:09.115Z,85.69
2022-12-23T01:23:41.698Z,85.47
2022-12-23T01:26:16.434Z,85.99
2022-12-23T01:28:48.891Z,86.25
2022-12-23T01:31:23.679Z,86.26
2022-12-23T01:33:58.623Z,87.02
2022-12-23T01:36:34.380Z,86.28
2022-12-23T01:39:08.641Z,86.70
2022-12-23T01:41:56.731Z,86.16
2022-12-23T01:44:57.995Z,85.44
2022-12-23T01:47:43.253Z,85.56
2022-12-23T01:50:40.068Z,85.89
2022-12-23T01:53:18.472Z,86.26
2022-12-23T01:56:01.052Z,84.61
2022-12-23T01:58:38.183Z,84.27
2022-12-23T02:01:28.300Z,84.19
2022-12-23T02:04:16.953Z,82.76
2022-12-23T02:07:10.473Z,82.86
2022-12-23T02:09:46.379Z,83.35
2022-12-23T02:12:46.199Z,84.65
2022-12-23T02:15:51.091Z,84.50
2022-12-23T02:18:59.158Z,84.83
2022-12-23T02:22:05.103Z,83.55
2022-12-23T02:25:11.402Z,82.25
2022-12-23T02:28:00.780Z,81.28
2022-12-23T02:30:51.884Z,82.76
2022-12-23T02:33:36.063Z,82.96
2022-12-23T02:36:22.369Z,84.06
2022-12-23T02:39:08.096Z,83.97
2022-12-23T02:41:48.276Z,84.36
2022-12-23T02:44:35.551Z,84.84
2022-12-23T02:47:15.561Z,84.54
2022-12-23T02:49:52.063Z,84.37
2022-12-23T02:52:30.694Z,85.05
2022-12-23T02:55:06.874Z,85.33
2022-12-23T02:57:42.197Z,85.49
2022-12-23T03:00:32.196Z,83.88
2022-12-23T03:03:22.587Z,84.89
2022-12-23T03:05:57.271Z,83.98
2022-12-23T03:08:32.549Z,83.33
2022-12-23T03:11:09.269Z,82.84
2022-12-23T03:13:57.898Z,81.39
2022-12-23T03:16:38.125Z,80.75
2022-12-23T03:19:15.736Z,79.31
2022-12-23T03:21:52.164Z,80.76
2022-12-23T03:24:34.893Z,81.21
2022-12-23T03:27:12.927Z,81.37
2022-12-23T03:29:51.853Z,82.52
2022-12-23T03:32:26.808Z,83.17
2022-12-23T03:35:03.200Z,83.65
2022-12-23T03:37:40.719Z,84.46
2022-12-23T03:40:20.061Z,84.47
2022-12-23T03:42:58.954Z,83.81
2022-12-23T03:45:39.446Z,84.01
2022-12-23T03:48:18.767Z,84.30
2022-12-23T03:50:55.983Z,84.67
2022-12-23T03:53:33.951Z,84.64
2022-12-23T03:56:09.783Z,85.04
2022-12-23T03:58:48.156Z,85.12
2022-12-23T04:01:28.646Z,85.86
2022-12-23T04:04:08.208Z,85.78
2022-12-23T04:06:51.456Z,85.91
2022-12-23T04:09:26.399Z,85.67
2022-12-23T04:11:59.312Z,85.54
2022-12-23T04:14:34.312Z,85.76
2022-12-23T04:17:07.054Z,86.15
2022-12-23T04:19:39.247Z,85.73
2022-12-23T04:22:13.991Z,86.90
2022-12-23T04:24:46.504Z,87.53
2022-12-23T04:27:19.661Z,87.41
2022-12-23T04:29:52.154Z,87.73
2022-12-23T04:32:25.059Z,87.97
2022-12-23T04:34:58.043Z,87.37
2022-12-23T04:37:33.414Z,87.38
2022-12-23T04:40:06.047Z,87.47
2022-12-23T04:42:39.241Z,86.99
2022-12-23T04:45:13.494Z,87.06
2022-12-23T04:47:47.136Z,86.31
2022-12-23T04:50:20.197Z,86.40
2022-12-23T04:52:54.796Z,85.12
2022-12-23T04:55:28.400Z,85.05
2022-12-23T04:58:00.651Z,85.25
2022-12-23T05:00:38.927Z,86.07
2022-12-23T05:03:11.821Z,85.57
2022-12-23T05:05:48.336Z,85.18
2022-12-23T05:08:22.140Z,85.68
2022-12-23T05:10:54.778Z,85.83
2022-12-23T05:13:27.246Z,86.18
2022-12-23T05:16:00.937Z,85.86
2022-12-23T05:18:34.615Z,85.85
2022-12-23T05:21:07.771Z,86.92
2022-12-23T05:23:42.152Z,87.10
2022-12-23T05:26:17.220Z,86.49
2022-12-23T05:28:51.776Z,86.46
2022-12-23T05:31:23.680Z,87.39
2022-12-23T05:34:11.708Z,87.54
2022-12-23T05:36:44.771Z,87.68
2022-12-23T05:39:37.491Z,87.07
2022-12-23T05:42:26.841Z,87.73
2022-12-23T05:45:01.910Z,87.39
2022-12-23T05:47:41.933Z,87.81
2022-12-23T05:50:15.472Z,87.60
2022-12-23T05:52:48.881Z,87.65
2022-12-23T05:55:23.556Z,88.10
2022-12-23T05:57:56.587Z,88.88
2022-12-23T06:00:31.620Z,89.14
2022-12-23T06:03:07.519Z,88.25
2022-12-23T06:06:01.881Z,88.08
2022-12-23T06:08:35.422Z,88.16
2022-12-23T06:11:15.592Z,89.10
2022-12-23T06:13:48.205Z,88.77
2022-12-23T06:16:24.758Z,88.56
2022-12-23T06:19:00.611Z,88.86
2022-12-23T06:21:34.324Z,90.00
2022-12-23T06:24:06.666Z,90.15
2022-12-23T06:26:41.203Z,90.88
2022-12-23T06:29:15.705Z,91.24
2022-12-23T06:31:48.292Z,92.23
2022-12-23T06:34:20.808Z,93.17
2022-12-23T06:36:53.408Z,93.31
2022-12-23T06:39:25.748Z,93.63
2022-12-23T06:41:59.911Z,93.55
2022-12-23T06:44:33.524Z,94.63
2022-12-23T06:47:09.331Z,94.34
2022-12-23T06:49:45.345Z,95.81
2022-12-23T06:52:23.286Z,96.15
2022-12-23T06:55:01.772Z,96.70
2022-12-23T06:57:39.540Z,97.22
2022-12-23T07:00:32.168Z,97.51
2022-12-23T07:03:20.847Z,97.96
2022-12-23T07:05:51.602Z,98.61
2022-12-23T07:08:22.445Z,98.26
2022-12-23T07:10:53.212Z,97.47
2022-12-23T07:13:25.620Z,97.54
2022-12-23T07:15:56.513Z,97.72
2022-12-23T07:18:45.242Z,97.39
2022-12-23T07:21:33.837Z,98.04
2022-12-23T07:24:06.408Z,98.63
2022-12-23T07:26:37.203Z,98.42
2022-12-23T07:29:28.076Z,98.22
2022-12-23T07:31:59.354Z,97.74
2022-12-23T07:34:30.124Z,97.54
2022-12-23T07:37:00.862Z,97.96
2022-12-23T07:39:34.115Z,95.69
2022-12-23T07:45:40.762Z,92.51
2022-12-23T07:48:12.501Z,91.77
2022-12-23T07:50:43.155Z,91.97
2022-12-23T07:53:14.492Z,92.68
2022-12-23T07:55:45.201Z,94.15
2022-12-23T07:58:15.946Z,94.09
2022-12-23T08:00:48.243Z,94.15
2022-12-23T08:03:19.201Z,94.74
2022-12-23T08:05:49.864Z,94.75
2022-12-23T08:08:20.858Z,94.79
2022-12-23T08:10:51.505Z,93.95
2022-12-23T08:13:22.456Z,94.45
2022-12-23T08:15:59.591Z,94.29
2022-12-23T08:21:26.331Z,94.45
2022-12-23T08:23:57.120Z,95.08
2022-12-23T08:26:28.316Z,95.06
2022-12-23T08:28:59.374Z,95.17
2022-12-23T08:31:33.670Z,95.01
2022-12-23T08:34:06.636Z,95.84
2022-12-23T08:37:07.483Z,96.50
2022-12-23T08:39:38.677Z,96.75
2022-12-23T08:45:21.674Z,97.82
2022-12-23T08:47:54.244Z,98.66
2022-12-23T08:50:28.714Z,99.77
2022-12-23T08:53:02.057Z,100.00
2022-12-23T08:55:36.662Z,100.00
2022-12-23T08:58:07.405Z,100.00
2022-12-23T09:00:40.596Z,100.00
2022-12-23T09:03:31.006Z,100.00
2022-12-23T09:06:01.854Z,100.00
2022-12-23T09:08:32.617Z,100.00
2022-12-23T09:11:07.731Z,100.00
2022-12-23T09:13:38.661Z,100.00
2022-12-23T09:16:10.627Z,100.00
2022-12-23T09:18:43.366Z,100.00
2022-12-23T09:21:35.674Z,100.00
2022-12-23T09:24:09.792Z,100.00
2022-12-23T09:26:58.380Z,100.00
2022-12-23T09:29:29.598Z,100.00
2022-12-23T09:34:58.602Z,100.00
2022-12-23T09:37:29.329Z,100.00
2022-12-23T09:40:21.032Z,100.00
2022-12-23T09:43:07.823Z,100.00
2022-12-23T09:46:06.505Z,100.00
2022-12-23T09:51:56.702Z,100.00
2022-12-23T09:54:30.763Z,99.75
2022-12-23T09:57:03.708Z,99.86
2022-12-23T10:00:05.715Z,99.61
2022-12-23T10:02:48.227Z,98.90
2022-12-23T10:05:33.633Z,97.92
2022-12-23T10:08:12.910Z,97.75
2022-12-23T10:11:02.852Z,97.13
2022-12-23T10:13:39.705Z,97.20
2022-12-23T10:16:29.698Z,96.79
2022-12-23T10:19:21.696Z,96.85
2022-12-23T10:21:55.386Z,96.87
2022-12-23T10:24:29.236Z,97.09
2022-12-23T10:27:03.659Z,97.16
2022-12-23T10:32:42.941Z,96.42
2022-12-23T10:35:46.560Z,96.24
2022-12-23T10:38:31.919Z,95.98
2022-12-23T10:41:24.029Z,96.37
2022-12-23T10:44:12.921Z,95.87
2022-12-23T10:46:55.817Z,95.81
2022-12-23T10:52:32.718Z,95.56
2022-12-23T10:55:03.555Z,95.33
2022-12-23T10:57:36.918Z,95.23
2022-12-23T11:00:20.841Z,94.81
2022-12-23T11:06:06.747Z,95.77
2022-12-23T11:08:41.710Z,95.70
2022-12-23T11:11:15.437Z,95.93
2022-12-23T11:13:51.963Z,96.12
2022-12-23T11:16:27.763Z,95.96
2022-12-23T11:19:01.799Z,96.07
2022-12-23T11:21:34.308Z,96.67
2022-12-23T11:24:20.270Z,96.77
2022-12-23T11:26:59.651Z,97.29
2022-12-23T11:29:40.771Z,97.16
2022-12-23T11:32:31.403Z,97.42
2022-12-23T11:35:04.820Z,97.13
2022-12-23T11:37:56.862Z,97.27
2022-12-23T11:43:30.120Z,98.39
2022-12-23T11:46:31.734Z,99.11
2022-12-23T11:49:19.706Z,99.09
2022-12-23T11:51:52.076Z,99.17
2022-12-23T11:54:23.799Z,99.25
2022-12-23T11:59:58.470Z,99.68
2022-12-23T12:02:38.003Z,99.13
2022-12-23T12:05:20.941Z,99.25
2022-12-23T12:07:55.226Z,98.68
2022-12-23T12:10:31.383Z,98.82
2022-12-23T12:13:06.767Z,97.93
2022-12-23T12:15:46.313Z,99.02
2022-12-23T12:18:22.408Z,98.82
2022-12-23T12:21:01.622Z,99.53
2022-12-23T12:23:44.999Z,99.58
2022-12-23T12:26:21.835Z,100.00
2022-12-23T12:28:59.561Z,98.58
2022-12-23T12:31:37.155Z,99.01
2022-12-23T12:34:30.912Z,99.59
2022-12-23T12:37:09.793Z,99.89
2022-12-23T12:39:45.727Z,100.00
2022-12-23T12:42:23.274Z,100.00
2022-12-23T12:45:09.195Z,100.00
2022-12-23T12:47:53.735Z,100.00
2022-12-23T12:50:32.678Z,100.00
2022-12-23T12:53:13.960Z,100.00
2022-12-23T12:55:48.471Z,100.00
2022-12-23T12:58:23.816Z,100.00
2022-12-23T13:01:08.013Z,100.00
2022-12-23T13:04:03.180Z,100.00
2022-12-23T13:06:46.491Z,100.00
2022-12-23T13:09:30.386Z,100.00
2022-12-23T13:12:11.323Z,100.00
2022-12-23T13:14:58.685Z,100.00
2022-12-23T13:17:35.781Z,100.00
2022-12-23T13:20:20.303Z,100.00
2022-12-23T13:23:42.159Z,100.00
2022-12-23T13:26:18.508Z,100.00
2022-12-23T13:29:00.031Z,100.00
2022-12-23T13:31:52.877Z,100.00
2022-12-23T13:34:49.310Z,100.00
2022-12-23T13:37:30.416Z,100.00
2022-12-23T13:40:14.958Z,100.00
2022-12-23T13:42:51.793Z,100.00
2022-12-23T13:45:24.155Z,100.00
2022-12-23T13:48:08.791Z,100.00
2022-12-23T13:50:46.294Z,100.00
2022-12-23T13:53:27.637Z,100.00
2022-12-23T13:56:13.823Z,100.00
2022-12-23T13:58:45.218Z,100.00
2022-12-23T14:01:38.378Z,100.00
2022-12-23T14:04:37.519Z,100.00
2022-12-23T14:07:21.841Z,100.00
2022-12-23T14:09:56.798Z,100.00
2022-12-23T14:12:31.604Z,100.00
2022-12-23T14:15:30.390Z,100.00
2022-12-23T14:18:15.505Z,100.00
2022-12-23T14:20:53.255Z,100.00
2022-12-23T14:23:41.784Z,98.23
2022-12-23T14:26:47.310Z,96.80
2022-12-23T14:29:48.604Z,96.56
2022-12-23T14:32:27.899Z,95.92
2022-12-23T14:35:42.710Z,95.45
2022-12-23T14:38:26.793Z,95.50
2022-12-23T14:41:39.364Z,95.49
2022-12-23T14:44:23.380Z,93.93
2022-12-23T14:47:00.676Z,94.40
2022-12-23T14:49:46.437Z,94.15
2022-12-23T14:52:55.018Z,93.67
2022-12-23T14:55:47.854Z,93.85
2022-12-23T14:58:34.352Z,94.79
2022-12-23T15:01:12.052Z,95.66
2022-12-23T15:03:54.575Z,95.61
2022-12-23T15:06:36.313Z,92.61
2022-12-23T15:09:09.866Z,93.29
2022-12-23T15:11:42.960Z,93.65
2022-12-23T15:14:21.453Z,92.81
2022-12-23T15:16:52.170Z,93.06
2022-12-23T15:19:27.674Z,93.13
2022-12-23T15:22:20.835Z,91.73
2022-12-23T15:24:53.084Z,93.42
2022-12-23T15:27:27.882Z,93.30
2022-12-23T15:30:00.223Z,93.04
2022-12-23T15:32:32.029Z,92.30
2022-12-23T15:35:08.868Z,92.01
2022-12-23T15:37:57.896Z,90.99
2022-12-23T15:40:30.979Z,91.09
2022-12-23T15:43:02.038Z,91.49
2022-12-23T15:45:38.782Z,91.06
2022-12-23T15:48:25.310Z,90.98
2022-12-23T15:51:02.027Z,90.26
2022-12-23T15:53:36.032Z,89.35
2022-12-23T15:56:09.920Z,89.42
2022-12-23T15:58:44.820Z,88.37
2022-12-23T16:01:39.145Z,88.90
2022-12-23T16:04:28.760Z,89.51
2022-12-23T16:07:01.230Z,89.59
2022-12-23T16:09:39.245Z,89.53
2022-12-23T16:12:28.154Z,88.49
2022-12-23T16:15:01.464Z,89.90
2022-12-23T16:17:36.743Z,90.60
2022-12-23T16:20:27.219Z,90.93
2022-12-23T16:23:04.150Z,91.14
2022-12-23T16:25:36.945Z,91.65
2022-12-23T16:28:10.508Z,93.40
2022-12-23T16:30:42.774Z,93.98
2022-12-23T16:33:29.837Z,93.48
2022-12-23T16:36:21.204Z,94.26
2022-12-23T16:38:56.259Z,95.60
2022-12-23T16:41:26.891Z,95.89
2022-12-23T16:43:58.933Z,94.83
2022-12-23T16:46:36.469Z,94.68
2022-12-23T16:49:11.814Z,94.92
2022-12-23T16:51:43.384Z,95.18
2022-12-23T16:54:17.655Z,95.31
2022-12-23T16:56:49.202Z,94.97
2022-12-23T16:59:20.706Z,94.50
2022-12-23T17:01:54.562Z,94.57
2022-12-23T17:04:28.612Z,95.23
2022-12-23T17:06:59.274Z,95.67
2022-12-23T17:09:31.580Z,94.94
2022-12-23T17:12:02.251Z,95.33
2022-12-23T17:14:33.088Z,94.80
2022-12-23T17:17:04.359Z,95.03
2022-12-23T17:19:35.076Z,94.01
2022-12-23T17:22:06.579Z,94.03
2022-12-23T17:24:38.970Z,94.61
2022-12-23T17:27:15.691Z,94.39
2022-12-23T17:29:46.617Z,94.38
2022-12-23T17:32:19.682Z,94.68
2022-12-23T17:34:50.557Z,95.42
2022-12-23T17:37:22.556Z,95.33
2022-12-23T17:39:57.579Z,95.49
2022-12-23T17:42:28.241Z,94.94
2022-12-23T17:44:58.774Z,94.82
2022-12-23T17:47:29.944Z,94.95
2022-12-23T17:50:00.605Z,95.81
2022-12-23T17:52:31.232Z,95.30
2022-12-23T17:55:03.448Z,95.76
2022-12-23T17:57:34.335Z,95.34
2022-12-23T18:00:05.175Z,96.00
2022-12-23T18:02:36.348Z,95.50
2022-12-23T18:05:23.480Z,95.49
2022-12-23T18:07:58.018Z,95.05
2022-12-23T18:10:33.382Z,93.63
2022-12-23T18:13:05.989Z,93.53
2022-12-23T18:15:39.403Z,91.87
2022-12-23T18:18:22.309Z,90.79
2022-12-23T18:20:59.213Z,91.64
2022-12-23T18:23:32.097Z,91.20
2022-12-23T18:26:04.407Z,91.61
2022-12-23T18:28:34.983Z,92.10
2022-12-23T18:31:05.704Z,91.67
2022-12-23T18:33:36.656Z,91.73
2022-12-23T18:36:07.720Z,92.56
2022-12-23T18:38:38.359Z,90.60
2022-12-23T18:41:14.795Z,88.43
2022-12-23T18:43:45.372Z,89.56
2022-12-23T18:46:16.173Z,89.74
2022-12-23T18:48:47.558Z,90.76
2022-12-23T18:51:19.778Z,87.32
2022-12-23T18:53:51.047Z,87.87
2022-12-23T18:56:24.935Z,89.67
2022-12-23T18:58:55.601Z,90.54
2022-12-23T19:01:26.560Z,94.07
2022-12-23T19:03:57.134Z,96.87
2022-12-23T19:06:27.706Z,98.79
2022-12-23T19:08:58.307Z,99.53
2022-12-23T19:11:30.660Z,99.38
2022-12-23T19:14:01.556Z,99.88
2022-12-23T19:16:32.405Z,98.84
2022-12-23T19:19:03.021Z,97.81
2022-12-23T19:21:33.660Z,94.62
2022-12-23T19:24:04.245Z,95.29
2022-12-23T19:26:36.477Z,96.34
2022-12-23T19:29:07.058Z,97.75
2022-12-23T19:31:37.648Z,95.56
2022-12-23T19:34:12.849Z,94.85
2022-12-23T19:36:46.250Z,95.51
2022-12-23T19:39:19.101Z,94.84
2022-12-23T19:41:51.414Z,94.33
2022-12-23T19:44:21.979Z,93.21
2022-12-23T19:46:52.664Z,92.81
2022-12-23T19:49:23.358Z,93.58
2022-12-23T19:51:53.906Z,94.90
2022-12-23T19:54:24.553Z,94.23
2022-12-23T19:56:56.912Z,94.93
2022-12-23T19:59:27.595Z,96.26
2022-12-23T20:01:58.457Z,96.72
2022-12-23T20:04:29.163Z,97.18
2022-12-23T20:06:59.712Z,98.20
2022-12-23T20:09:30.414Z,99.20
2022-12-23T20:12:02.653Z,100.00
2022-12-23T20:14:34.344Z,100.00
2022-12-23T20:17:05.456Z,100.00
2022-12-23T20:19:39.080Z,100.00
2022-12-23T20:22:16.289Z,100.00
2022-12-23T20:24:46.982Z,100.00
2022-12-23T20:27:24.297Z,100.00
2022-12-23T20:29:58.405Z,100.00
2022-12-23T20:32:28.988Z,100.00
2022-12-23T20:34:59.988Z,100.00
2022-12-23T20:37:30.642Z,100.00
2022-12-23T20:40:01.359Z,100.00
2022-12-23T20:42:33.715Z,100.00
2022-12-23T20:45:04.225Z,100.00
2022-12-23T20:47:34.871Z,100.00
2022-12-23T20:50:05.552Z,100.00
2022-12-23T20:52:36.133Z,100.00
2022-12-23T20:55:07.452Z,100.00
2022-12-23T20:57:39.724Z,100.00
2022-12-23T21:00:14.677Z,100.00
2022-12-23T21:02:45.347Z,100.00
2022-12-23T21:05:15.834Z,100.00
2022-12-23T21:07:46.332Z,100.00
2022-12-23T21:10:16.924Z,100.00
2022-12-23T21:12:49.089Z,100.00
2022-12-23T21:15:19.730Z,100.00
2022-12-23T21:17:50.378Z,100.00
2022-12-23T21:20:20.982Z,100.00
2022-12-23T21:22:51.594Z,100.00
2022-12-23T21:25:22.199Z,100.00
2022-12-23T21:27:55.101Z,100.00
2022-12-23T21:30:25.661Z,100.00
2022-12-23T21:33:00.978Z,100.00
2022-12-23T21:35:31.518Z,100.00
2022-12-23T21:38:02.046Z,100.00
2022-12-23T21:40:32.620Z,100.00
2022-12-23T21:43:08.676Z,100.00
2022-12-23T21:45:39.547Z,100.00
2022-12-23T21:48:10.590Z,100.00
2022-12-23T21:50:41.155Z,100.00
2022-12-23T21:53:11.670Z,100.00
2022-12-23T21:55:42.230Z,100.00
2022-12-23T21:58:31.174Z,100.00
2022-12-23T22:01:02.151Z,100.00
2022-12-23T22:03:32.900Z,100.00
2022-12-23T22:06:10.467Z,100.00
2022-12-23T22:08:41.914Z,100.00
2022-12-23T22:11:30.898Z,100.00
2022-12-23T22:14:04.161Z,100.00
2022-12-23T22:16:35.487Z,100.00
2022-12-23T22:19:08.040Z,100.00
2022-12-23T22:21:40.419Z,100.00
2022-12-23T22:24:11.647Z,100.00
2022-12-23T22:26:42.796Z,100.00
2022-12-23T22:29:15.261Z,100.00
2022-12-23T22:32:04.349Z,100.00
2022-12-23T22:34:52.120Z,100.00
2022-12-23T22:37:39.269Z,100.00
2022-12-23T22:40:11.433Z,100.00
2022-12-23T22:42:59.289Z,100.00
2022-12-23T22:45:31.437Z,100.00
2022-12-23T22:48:02.306Z,100.00
2022-12-23T22:50:32.883Z,100.00
2022-12-23T22:53:03.577Z,100.00
2022-12-23T22:55:50.723Z,100.00
2022-12-23T22:58:21.263Z,100.00
2022-12-23T23:00:53.481Z,100.00
2022-12-23T23:03:24.664Z,100.00
2022-12-23T23:06:08.541Z,100.00
2022-12-23T23:08:47.655Z,100.00
2022-12-23T23:11:21.302Z,100.00
2022-12-23T23:13:52.016Z,100.00
2022-12-23T23:16:42.190Z,100.00
2022-12-23T23:19:16.176Z,100.00
2022-12-23T23:21:49.262Z,100.00
2022-12-23T23:24:29.366Z,100.00
2022-12-23T23:35:10.870Z,100.00
2022-12-23T23:37:59.659Z,100.00
2022-12-23T23:40:35.798Z,100.00
2022-12-23T23:43:11.714Z,100.00
2022-12-23T23:45:44.428Z,100.00
2022-12-23T23:48:18.299Z,100.00
2022-12-23T23:51:02.968Z,100.00
2022-12-23T23:53:36.613Z,100.00
2022-12-23T23:56:19.131Z,100.00
2022-12-23T23:58:56.798Z,100.00
